createdAt,value
2017-11-17T00:01:58.553Z,22.80
2017-11-17T00:04:26.005Z,23.27
2017-11-17T00:06:53.828Z,23.17
2017-11-17T00:09:22.039Z,23.58
2017-11-17T00:11:49.504Z,24.65
2017-11-17T00:14:16.961Z,23.30
2017-11-17T00:16:44.409Z,21.95
2017-11-17T00:19:11.864Z,24.15
2017-11-17T00:21:39.329Z,22.83
2017-11-17T00:24:06.762Z,24.73
2017-11-17T00:26:35.013Z,22.77
2017-11-17T00:29:02.455Z,23.60
2017-11-17T00:31:29.901Z,22.10
2017-11-17T00:33:58.167Z,22.40
2017-11-17T00:36:26.297Z,22.40
2017-11-17T00:38:53.737Z,22.02
2017-11-17T00:41:21.190Z,21.48
2017-11-17T00:43:48.722Z,24.85
2017-11-17T00:46:16.171Z,21.92
2017-11-17T00:48:43.630Z,21.30
2017-11-17T00:51:11.082Z,21.12
2017-11-17T00:53:38.549Z,24.52
2017-11-17T00:56:06.003Z,22.85
2017-11-17T00:58:37.321Z,21.85
2017-11-17T01:01:04.771Z,22.05
2017-11-17T01:03:32.229Z,23.40
2017-11-17T01:05:59.695Z,22.52
2017-11-17T01:08:27.252Z,21.90
2017-11-17T01:10:55.472Z,22.30
2017-11-17T01:13:22.913Z,25.05
2017-11-17T01:15:51.138Z,23.50
2017-11-17T01:18:18.597Z,21.90
2017-11-17T01:20:46.481Z,21.15
2017-11-17T01:23:15.588Z,21.80
2017-11-17T01:25:43.094Z,24.23
2017-11-17T01:28:10.939Z,23.77
2017-11-17T01:30:44.606Z,22.40
2017-11-17T01:33:12.095Z,23.75
2017-11-17T01:35:39.656Z,22.48
2017-11-17T01:38:07.217Z,21.45
2017-11-17T02:02:18.483Z,24.67
2017-11-17T02:04:45.945Z,26.98
2017-11-17T02:07:13.388Z,27.10
2017-11-17T02:09:40.862Z,29.10
2017-11-17T02:12:08.308Z,27.23
2017-11-17T02:14:36.527Z,25.70
2017-11-17T02:17:03.975Z,25.95
2017-11-17T02:19:31.459Z,25.95
2017-11-17T02:21:58.916Z,28.67
2017-11-17T02:24:26.390Z,25.42
2017-11-17T02:26:54.639Z,26.58
2017-11-17T02:29:22.077Z,26.45
2017-11-17T02:31:49.558Z,27.85
2017-11-17T02:34:16.996Z,26.33
2017-11-17T02:36:45.237Z,26.10
2017-11-17T02:39:12.675Z,26.10
2017-11-17T02:41:40.170Z,23.17
2017-11-17T02:44:07.606Z,26.48
2017-11-17T02:46:36.661Z,25.67
2017-11-17T02:49:04.142Z,26.45
2017-11-17T02:51:31.590Z,24.50
2017-11-17T02:53:59.052Z,24.95
2017-11-17T02:56:27.271Z,26.48
2017-11-17T02:58:54.734Z,25.50
2017-11-17T03:01:22.165Z,25.50
2017-11-17T03:03:50.503Z,27.92
2017-11-17T03:06:17.979Z,26.05
2017-11-17T03:08:45.445Z,26.12
2017-11-17T03:11:13.663Z,23.38
2017-11-17T03:13:41.124Z,24.35
2017-11-17T03:16:08.553Z,24.55
2017-11-17T03:18:36.023Z,24.30
2017-11-17T03:21:03.489Z,24.87
2017-11-17T03:23:31.098Z,28.02
2017-11-17T03:25:58.544Z,26.50
2017-11-17T03:28:26.070Z,24.30
2017-11-17T03:30:53.585Z,26.90
2017-11-17T03:33:21.069Z,26.30
2017-11-17T03:35:48.536Z,23.58
2017-11-17T03:38:16.705Z,27.83
2017-11-17T03:40:44.169Z,25.65
2017-11-17T03:43:11.639Z,25.80
2017-11-17T03:45:39.119Z,27.40
2017-11-17T03:48:06.632Z,25.60
2017-11-17T03:50:34.099Z,26.60
2017-11-17T03:53:01.541Z,26.08
2017-11-17T03:55:29.002Z,25.90
2017-11-17T03:57:57.222Z,26.80
2017-11-17T04:00:28.611Z,27.52
2017-11-17T04:02:56.065Z,25.95
2017-11-17T04:05:23.531Z,29.00
2017-11-17T04:07:50.977Z,27.52
2017-11-17T04:10:19.203Z,27.77
2017-11-17T04:12:46.643Z,27.40
2017-11-17T04:15:14.875Z,28.10
2017-11-17T04:17:42.903Z,26.87
2017-11-17T04:20:10.332Z,26.20
2017-11-17T04:22:37.788Z,27.00
2017-11-17T04:25:05.248Z,27.48
2017-11-17T04:27:33.476Z,28.42
2017-11-17T04:30:01.032Z,25.75
2017-11-17T04:32:29.275Z,28.20
2017-11-17T04:34:56.742Z,25.75
2017-11-17T04:37:24.205Z,27.48
2017-11-17T04:39:51.650Z,26.27
2017-11-17T04:42:19.097Z,25.95
2017-11-17T04:44:50.570Z,26.48
2017-11-17T04:47:18.789Z,27.90
2017-11-17T04:49:46.266Z,28.02
2017-11-17T04:52:13.734Z,25.60
2017-11-17T04:54:41.738Z,26.40
2017-11-17T04:57:09.177Z,28.83
2017-11-17T04:59:37.515Z,28.05
2017-11-17T05:02:05.017Z,27.67
2017-11-17T05:04:32.517Z,28.10
2017-11-17T05:07:00.846Z,29.23
2017-11-17T05:09:28.310Z,27.10
2017-11-17T05:11:55.788Z,31.85
2017-11-17T05:14:23.315Z,28.65
2017-11-17T05:16:50.836Z,27.58
2017-11-17T05:19:18.311Z,29.23
2017-11-17T05:21:45.774Z,26.77
2017-11-17T05:24:13.978Z,26.73
2017-11-17T05:26:41.466Z,26.10
2017-11-17T05:29:08.920Z,30.30
2017-11-17T05:31:37.145Z,31.05
2017-11-17T05:34:04.639Z,27.65
2017-11-17T05:36:32.972Z,28.80
2017-11-17T05:39:01.202Z,26.52
2017-11-17T05:41:28.669Z,28.02
2017-11-17T05:43:56.139Z,29.42
2017-11-17T05:46:23.581Z,27.20
2017-11-17T05:48:51.809Z,29.12
2017-11-17T05:51:19.270Z,28.83
2017-11-17T05:53:46.798Z,27.40
2017-11-17T05:56:14.253Z,29.42
2017-11-17T05:58:41.708Z,26.37
2017-11-17T06:01:09.179Z,26.45
2017-11-17T06:03:36.657Z,24.50
2017-11-17T06:06:04.155Z,25.42
2017-11-17T06:08:31.608Z,26.75
2017-11-17T06:10:59.081Z,28.50
2017-11-17T06:13:26.560Z,27.37
2017-11-17T06:15:54.024Z,25.95
2017-11-17T06:18:21.475Z,25.50
2017-11-17T06:20:50.732Z,26.30
2017-11-17T06:23:18.177Z,25.27
2017-11-17T06:25:46.404Z,25.00
2017-11-17T06:28:13.855Z,27.15
2017-11-17T06:30:41.325Z,24.50
2017-11-17T06:33:08.772Z,24.10
2017-11-17T06:35:36.230Z,25.48
2017-11-17T06:38:03.712Z,25.80
2017-11-17T06:40:31.139Z,25.42
2017-11-17T06:42:59.216Z,25.08
2017-11-17T06:45:26.701Z,26.20
2017-11-17T06:47:54.157Z,22.75
2017-11-17T06:50:22.373Z,28.45
2017-11-17T06:52:49.846Z,24.02
2017-11-17T06:55:17.295Z,23.40
2017-11-17T06:57:44.757Z,24.02
2017-11-17T07:00:12.980Z,25.60
2017-11-17T07:02:40.424Z,24.87
2017-11-17T07:05:08.653Z,25.30
2017-11-17T07:07:36.107Z,23.87
2017-11-17T07:10:03.608Z,25.75
2017-11-17T07:12:31.081Z,26.10
2017-11-17T07:14:58.560Z,26.98
2017-11-17T07:17:26.034Z,27.48
2017-11-17T07:19:53.778Z,26.87
2017-11-17T07:22:21.233Z,28.00
2017-11-17T07:24:48.730Z,28.15
2017-11-17T07:27:17.016Z,25.45
2017-11-17T07:29:45.265Z,27.40
2017-11-17T07:32:12.769Z,28.83
2017-11-17T07:34:40.241Z,27.33
2017-11-17T07:37:07.731Z,27.33
2017-11-17T07:39:35.422Z,26.98
2017-11-17T07:42:02.917Z,26.87
2017-11-17T07:44:30.414Z,26.27
2017-11-17T07:46:57.953Z,27.95
2017-11-17T07:49:25.512Z,29.35
2017-11-17T07:51:52.973Z,27.83
2017-11-17T07:54:20.434Z,30.50
2017-11-17T07:56:47.882Z,29.52
2017-11-17T07:59:15.363Z,28.80
2017-11-17T08:01:42.827Z,27.37
2017-11-17T08:04:11.014Z,29.00
2017-11-17T08:06:38.459Z,27.58
2017-11-17T08:09:05.915Z,28.87
2017-11-17T08:11:33.402Z,27.45
2017-11-17T08:14:00.862Z,29.35
2017-11-17T08:16:28.333Z,28.15
2017-11-17T08:18:55.781Z,29.40
2017-11-17T08:21:23.236Z,29.73
2017-11-17T08:23:50.718Z,27.77
2017-11-17T08:26:18.173Z,28.15
2017-11-17T08:28:45.617Z,26.80
2017-11-17T08:31:13.073Z,29.25
2017-11-17T08:33:40.516Z,30.27
2017-11-17T08:36:07.981Z,28.70
2017-11-17T08:38:35.435Z,29.55
2017-11-17T08:41:03.664Z,28.23
2017-11-17T08:43:31.101Z,28.20
2017-11-17T08:45:59.317Z,29.17
2017-11-17T08:48:26.809Z,29.65
2017-11-17T08:50:54.857Z,28.55
2017-11-17T08:53:23.066Z,28.85
2017-11-17T08:55:50.545Z,28.70
2017-11-17T08:58:17.983Z,31.10
2017-11-17T09:00:45.454Z,31.23
2017-11-17T09:03:13.003Z,29.10
2017-11-17T09:05:45.235Z,30.15
2017-11-17T09:08:13.892Z,30.05
2017-11-17T09:10:41.409Z,29.65
2017-11-17T09:13:10.565Z,30.05
2017-11-17T09:15:38.078Z,28.40
2017-11-17T09:18:05.554Z,32.10
2017-11-17T09:20:33.034Z,27.27
2017-11-17T09:23:00.995Z,28.23
2017-11-17T09:25:29.334Z,30.48
2017-11-17T09:27:57.607Z,29.30
2017-11-17T09:30:25.157Z,29.60
2017-11-17T09:32:52.623Z,31.60
2017-11-17T09:35:20.141Z,28.60
2017-11-17T09:37:47.611Z,31.10
2017-11-17T09:40:15.669Z,31.37
2017-11-17T09:42:43.136Z,31.60
2017-11-17T09:45:11.180Z,31.15
2017-11-17T09:47:39.442Z,30.92
2017-11-17T09:50:06.908Z,30.85
2017-11-17T09:52:34.385Z,29.70
2017-11-17T09:55:01.837Z,29.77
2017-11-17T09:57:29.300Z,32.63
2017-11-17T09:59:57.522Z,30.45
2017-11-17T10:02:25.046Z,31.60
2017-11-17T10:04:53.306Z,29.00
2017-11-17T10:07:20.964Z,31.65
2017-11-17T10:09:48.433Z,29.35
2017-11-17T10:12:15.892Z,30.42
2017-11-17T10:14:43.356Z,30.05
2017-11-17T10:17:14.533Z,30.90
2017-11-17T10:19:41.997Z,32.28
2017-11-17T10:22:10.188Z,32.58
2017-11-17T10:24:37.647Z,32.20
2017-11-17T10:27:05.865Z,30.83
2017-11-17T10:29:33.682Z,32.15
2017-11-17T10:32:01.122Z,28.75
2017-11-17T10:34:28.586Z,32.88
2017-11-17T10:36:56.041Z,31.92
2017-11-17T10:39:24.248Z,30.45
2017-11-17T10:41:51.706Z,29.95
2017-11-17T10:44:19.920Z,32.80
2017-11-17T10:46:47.365Z,32.25
2017-11-17T10:49:15.611Z,29.15
2017-11-17T10:51:43.066Z,31.92
2017-11-17T10:54:10.581Z,31.95
2017-11-17T10:56:38.034Z,30.85
2017-11-17T10:59:05.502Z,33.05
2017-11-17T11:01:32.959Z,32.65
2017-11-17T11:04:00.453Z,31.08
2017-11-17T11:06:27.904Z,32.15
2017-11-17T11:08:55.379Z,33.03
2017-11-17T11:11:28.448Z,31.25
2017-11-17T11:13:55.981Z,33.30
2017-11-17T11:16:23.425Z,32.85
2017-11-17T11:18:50.901Z,36.75
2017-11-17T11:21:19.132Z,33.15
2017-11-17T11:23:46.592Z,34.92
2017-11-17T11:26:14.050Z,36.35
2017-11-17T11:28:41.494Z,35.38
2017-11-17T11:31:10.536Z,35.53
2017-11-17T11:33:37.986Z,37.08
2017-11-17T11:36:06.836Z,34.67
2017-11-17T11:38:34.334Z,37.50
2017-11-17T11:41:01.825Z,36.10
2017-11-17T11:43:29.309Z,36.35
2017-11-17T11:45:57.180Z,35.58
2017-11-17T11:48:24.661Z,36.30
2017-11-17T11:50:52.118Z,33.95
2017-11-17T11:53:19.584Z,36.03
2017-11-17T11:55:47.030Z,35.00
2017-11-17T11:58:14.502Z,33.15
2017-11-17T12:00:41.943Z,37.20
2017-11-17T12:03:09.443Z,34.67
2017-11-17T12:05:37.689Z,33.97
2017-11-17T12:08:05.152Z,32.85
2017-11-17T12:10:32.598Z,33.55
2017-11-17T12:13:00.074Z,31.83
2017-11-17T12:15:27.543Z,35.75
2017-11-17T12:17:54.965Z,33.65
2017-11-17T12:20:22.439Z,33.17
2017-11-17T12:22:49.897Z,35.25
2017-11-17T12:25:17.339Z,31.87
2017-11-17T12:27:44.817Z,35.25
2017-11-17T12:30:12.291Z,33.60
2017-11-17T12:32:39.845Z,33.42
2017-11-17T12:35:08.062Z,34.45
2017-11-17T12:37:35.641Z,33.60
2017-11-17T12:40:03.853Z,31.42
2017-11-17T12:42:31.322Z,33.65
2017-11-17T12:45:02.760Z,32.50
2017-11-17T12:47:30.983Z,33.90
2017-11-17T12:49:58.437Z,34.40
2017-11-17T12:52:25.898Z,32.35
2017-11-17T12:54:54.136Z,35.92
2017-11-17T12:57:22.362Z,34.40
2017-11-17T12:59:49.797Z,36.25
2017-11-17T13:02:17.273Z,35.17
2017-11-17T13:04:44.757Z,32.63
2017-11-17T13:07:12.189Z,35.22
2017-11-17T13:09:39.654Z,35.53
2017-11-17T13:12:07.869Z,38.08
2017-11-17T13:14:35.326Z,37.88
2017-11-17T13:17:02.788Z,40.53
2017-11-17T13:19:31.016Z,39.58
2017-11-17T13:21:59.100Z,34.85
2017-11-17T13:24:26.561Z,37.40
2017-11-17T13:27:04.503Z,35.90
2017-11-17T13:29:31.970Z,34.85
2017-11-17T13:31:59.430Z,36.25
2017-11-17T13:34:27.665Z,35.05
2017-11-17T13:36:56.076Z,34.45
2017-11-17T13:39:23.525Z,34.70
2017-11-17T13:41:50.993Z,33.38
2017-11-17T13:44:18.433Z,34.85
2017-11-17T13:46:46.677Z,35.78
2017-11-17T13:49:14.122Z,36.28
2017-11-17T13:51:41.589Z,36.78
2017-11-17T13:54:09.035Z,35.70
2017-11-17T13:56:37.086Z,36.92
2017-11-17T13:59:04.521Z,37.85
2017-11-17T14:01:31.997Z,37.55
2017-11-17T14:04:00.217Z,36.85
2017-11-17T14:06:27.658Z,36.03
2017-11-17T14:08:55.754Z,35.90
2017-11-17T14:11:23.201Z,36.30
2017-11-17T14:13:51.454Z,36.72
2017-11-17T14:16:18.894Z,38.08
2017-11-17T14:18:46.386Z,40.05
2017-11-17T14:21:13.844Z,38.65
2017-11-17T14:23:42.044Z,34.58
2017-11-17T14:26:09.523Z,37.25
2017-11-17T14:28:36.966Z,34.83
2017-11-17T14:31:05.195Z,38.67
2017-11-17T14:33:32.636Z,38.70
2017-11-17T14:36:00.873Z,37.17
2017-11-17T14:38:28.334Z,37.47
2017-11-17T14:40:55.824Z,38.70
2017-11-17T14:43:23.270Z,40.10
2017-11-17T14:45:50.730Z,37.78
2017-11-17T14:48:18.970Z,38.45
2017-11-17T14:50:46.452Z,37.40
2017-11-17T14:53:13.912Z,38.35
2017-11-17T14:55:41.434Z,36.58
2017-11-17T14:58:08.870Z,39.30
2017-11-17T15:00:36.313Z,37.50
2017-11-17T15:03:03.790Z,37.17
2017-11-17T15:05:31.228Z,35.95
2017-11-17T15:07:58.765Z,38.53
2017-11-17T15:10:26.202Z,37.45
2017-11-17T15:12:53.671Z,42.92
2017-11-17T15:15:21.865Z,39.42
2017-11-17T15:17:50.110Z,36.80
2017-11-17T15:20:17.544Z,36.65
2017-11-17T15:22:44.985Z,38.50
2017-11-17T15:25:12.467Z,38.97
2017-11-17T15:27:40.787Z,39.58
2017-11-17T15:30:08.258Z,37.97
2017-11-17T15:32:35.714Z,39.80
2017-11-17T15:35:03.224Z,38.50
2017-11-17T15:37:30.668Z,43.97
2017-11-17T15:39:58.899Z,39.58
2017-11-17T15:42:30.868Z,38.40
2017-11-17T15:44:58.553Z,40.20
2017-11-17T15:47:26.241Z,38.33
2017-11-17T15:49:54.522Z,39.33
2017-11-17T15:52:22.834Z,41.00
2017-11-17T15:54:54.320Z,40.70
2017-11-17T15:57:21.927Z,38.20
2017-11-17T15:59:49.451Z,42.65
2017-11-17T16:02:18.263Z,38.38
2017-11-17T16:04:45.752Z,38.78
2017-11-17T16:07:13.283Z,39.10
2017-11-17T16:09:40.746Z,38.28
2017-11-17T16:12:08.966Z,38.22
2017-11-17T16:14:36.408Z,36.28
2017-11-17T16:17:05.246Z,36.05
2017-11-17T16:19:32.702Z,35.97
2017-11-17T16:22:00.185Z,36.08
2017-11-17T16:24:27.645Z,36.38
2017-11-17T16:26:55.877Z,34.80
2017-11-17T16:29:24.072Z,32.88
2017-11-17T16:31:51.517Z,38.95
2017-11-17T16:34:19.586Z,35.90
2017-11-17T16:36:47.798Z,35.90
2017-11-17T16:39:15.240Z,35.08
2017-11-17T16:41:43.660Z,34.35
2017-11-17T16:44:11.102Z,36.60
2017-11-17T16:46:38.608Z,39.03
2017-11-17T16:49:06.821Z,41.53
2017-11-17T16:51:34.275Z,37.83
2017-11-17T16:54:02.561Z,38.15
2017-11-17T16:56:30.856Z,34.97
2017-11-17T16:58:59.109Z,36.15
2017-11-17T17:01:26.558Z,34.47
2017-11-17T17:03:53.998Z,37.53
2017-11-17T17:06:21.495Z,34.15
2017-11-17T17:08:48.941Z,38.53
2017-11-17T17:11:17.361Z,37.95
2017-11-17T17:13:45.271Z,39.33
2017-11-17T17:16:13.508Z,36.70
2017-11-17T17:18:41.934Z,38.90
2017-11-17T17:21:09.452Z,41.88
2017-11-17T17:23:40.855Z,38.15
2017-11-17T17:26:13.169Z,39.55
2017-11-17T17:28:40.657Z,42.90
2017-11-17T17:31:08.291Z,40.28
2017-11-17T17:33:35.821Z,37.75
2017-11-17T17:36:03.318Z,42.50
2017-11-17T17:38:32.067Z,42.40
2017-11-17T17:40:59.836Z,40.58
2017-11-17T17:43:28.115Z,42.15
2017-11-17T17:45:55.814Z,39.85
2017-11-17T17:48:23.418Z,43.47
2017-11-17T17:50:51.314Z,44.15
2017-11-17T17:53:18.893Z,44.33
2017-11-17T17:55:46.762Z,41.63
2017-11-17T17:58:16.288Z,41.83
2017-11-17T18:00:43.853Z,42.60
2017-11-17T18:03:11.440Z,43.45
2017-11-17T18:05:38.959Z,42.00
2017-11-17T18:08:06.505Z,42.90
2017-11-17T18:10:34.482Z,43.28
2017-11-17T18:13:02.598Z,43.42
2017-11-17T18:15:30.171Z,42.75
2017-11-17T18:17:57.685Z,45.58
2017-11-17T18:20:26.009Z,43.47
2017-11-17T18:22:53.482Z,40.70
2017-11-17T18:25:21.056Z,46.20
2017-11-17T18:27:49.440Z,41.83
2017-11-17T18:30:16.962Z,40.53
2017-11-17T18:32:44.441Z,42.80
2017-11-17T18:35:11.989Z,41.05
2017-11-17T18:37:40.273Z,41.88
2017-11-17T18:40:07.804Z,41.65
2017-11-17T18:42:35.489Z,42.15
2017-11-17T18:45:03.204Z,42.03
2017-11-17T18:47:31.294Z,42.38
2017-11-17T18:50:00.868Z,41.85
2017-11-17T18:52:28.421Z,40.88
2017-11-17T18:54:56.767Z,41.40
2017-11-17T18:57:24.316Z,42.00
2017-11-17T18:59:51.831Z,43.00
2017-11-17T19:02:20.144Z,38.75
2017-11-17T19:04:47.644Z,41.67
2017-11-17T19:07:15.173Z,43.13
2017-11-17T19:09:43.561Z,41.10
2017-11-17T19:12:11.796Z,39.28
2017-11-17T19:14:39.792Z,40.20
2017-11-17T19:17:07.373Z,40.03
2017-11-17T19:19:34.890Z,40.55
2017-11-17T19:22:02.407Z,39.92
2017-11-17T19:24:29.946Z,40.85
2017-11-17T19:26:57.445Z,45.85
2017-11-17T19:29:24.957Z,39.85
2017-11-17T19:31:52.472Z,38.42
2017-11-17T19:34:20.054Z,39.50
2017-11-17T19:36:48.470Z,40.25
2017-11-17T19:39:15.938Z,35.10
2017-11-17T19:41:43.478Z,36.50
2017-11-17T19:44:11.002Z,37.90
2017-11-17T19:46:38.540Z,37.17
2017-11-17T19:49:06.070Z,33.05
2017-11-17T19:51:33.618Z,36.17
2017-11-17T19:54:01.185Z,40.12
2017-11-17T19:56:28.790Z,40.78
2017-11-17T19:58:56.877Z,40.40
2017-11-17T20:01:24.425Z,38.67
2017-11-17T20:03:51.917Z,38.75
2017-11-17T20:06:19.572Z,41.53
2017-11-17T20:08:47.140Z,38.92
2017-11-17T20:11:14.765Z,37.55
2017-11-17T20:13:43.069Z,39.97
2017-11-17T20:16:10.594Z,39.53
2017-11-17T20:18:38.078Z,44.65
2017-11-17T20:21:05.815Z,40.50
2017-11-17T20:23:33.438Z,39.80
2017-11-17T20:26:01.851Z,41.13
2017-11-17T20:28:30.122Z,42.80
2017-11-17T20:30:57.658Z,37.67
2017-11-17T20:33:25.182Z,37.58
2017-11-17T20:35:52.831Z,37.58
2017-11-17T20:38:21.318Z,39.22
2017-11-17T20:40:48.853Z,37.97
2017-11-17T20:43:17.126Z,37.00
2017-11-17T20:45:45.584Z,41.17
2017-11-17T20:48:13.050Z,37.85
2017-11-17T20:50:41.337Z,37.08
2017-11-17T20:53:09.818Z,38.47
2017-11-17T20:55:41.147Z,39.60
2017-11-17T20:58:09.489Z,39.42
2017-11-17T21:00:38.196Z,41.75
2017-11-17T21:03:05.743Z,41.05
2017-11-17T21:05:33.362Z,47.33
2017-11-17T21:08:01.622Z,45.83
2017-11-17T21:10:30.235Z,43.67
2017-11-17T21:12:57.717Z,41.50
2017-11-17T21:15:25.321Z,39.63
2017-11-17T21:17:53.669Z,33.38
2017-11-17T21:20:21.306Z,34.70
2017-11-17T21:22:48.911Z,29.85
2017-11-17T21:25:16.582Z,26.35
2017-11-17T21:27:44.706Z,20.83
2017-11-17T21:30:12.236Z,23.70
2017-11-17T21:32:39.826Z,24.40
2017-11-17T21:35:09.361Z,21.75
2017-11-17T21:37:38.344Z,22.60
2017-11-17T21:40:05.933Z,25.02
2017-11-17T21:42:33.451Z,25.58
2017-11-17T21:45:00.942Z,26.83
2017-11-17T21:47:28.489Z,26.65
2017-11-17T21:49:56.963Z,26.02
2017-11-17T21:52:24.549Z,25.77
2017-11-17T21:54:52.860Z,25.62
2017-11-17T21:57:20.715Z,25.67
2017-11-17T21:59:48.330Z,26.52
2017-11-17T22:02:15.817Z,30.33
2017-11-17T22:04:43.279Z,28.70
2017-11-17T22:07:10.842Z,32.75
2017-11-17T22:09:39.110Z,36.20
2017-11-17T22:12:06.603Z,37.25
2017-11-17T22:14:34.822Z,38.00
2017-11-17T22:17:02.275Z,35.58
2017-11-17T22:19:29.872Z,35.22
2017-11-17T22:21:57.420Z,33.35
2017-11-17T22:24:24.885Z,33.03
2017-11-17T22:26:52.323Z,34.05
2017-11-17T22:29:23.992Z,33.25
2017-11-17T22:31:51.457Z,36.17
2017-11-17T22:34:18.922Z,34.17
2017-11-17T22:36:46.409Z,32.17
2017-11-17T22:39:13.876Z,31.92
2017-11-17T22:41:41.367Z,33.08
2017-11-17T22:44:08.831Z,33.78
2017-11-17T22:46:36.298Z,38.58
2017-11-17T22:49:03.764Z,31.95
2017-11-17T22:51:31.228Z,34.47
2017-11-17T22:53:59.439Z,34.75
2017-11-17T22:56:27.014Z,31.37
2017-11-17T22:58:55.017Z,33.60
2017-11-17T23:01:22.881Z,35.47
2017-11-17T23:03:51.106Z,31.67
2017-11-17T23:06:18.607Z,34.83
2017-11-17T23:08:46.187Z,34.35
2017-11-17T23:11:13.679Z,34.97
2017-11-17T23:13:41.981Z,36.15
2017-11-17T23:16:10.358Z,33.72
2017-11-17T23:18:42.271Z,30.60
2017-11-17T23:21:09.767Z,33.60
2017-11-17T23:23:37.331Z,30.75
2017-11-17T23:26:04.892Z,28.35
2017-11-17T23:28:32.438Z,30.90
2017-11-17T23:30:59.976Z,27.90
2017-11-17T23:33:27.846Z,26.50
2017-11-17T23:36:05.694Z,22.15
2017-11-17T23:38:37.258Z,21.37
2017-11-17T23:41:04.760Z,21.67
2017-11-17T23:43:32.293Z,23.33
2017-11-17T23:45:59.865Z,22.35
2017-11-17T23:48:27.439Z,23.02
2017-11-17T23:50:54.979Z,28.48
2017-11-17T23:53:23.332Z,31.73
2017-11-17T23:55:50.832Z,33.30
2017-11-17T23:58:18.277Z,31.52
